
<gpx xmlns="http://www.topografix.com/GPX/1/1" xmlns:gpxx="http://www.garmin.com/xmlschemas/GpxExtensions/v3" xmlns:xsi="http://www.w3.org/2001/XMLSchema-instance" version="1.1" creator="Adze - http://kobotsw.com/apps/adze" xsi:schemaLocation="http://www.topografix.com/GPX/1/1 http://www.topografix.com/GPX/1/1/gpx.xsd http://www.garmin.com/xmlschemas/GpxExtensions/v3 http://www.garmin.com/xmlschemas/GpxExtensionsv3.xsd">
    <metadata>
        <name>Untitled Document</name>
        <link href="http://www.garmin.com"></link>
        <time>2018-02-04T08:21:03.995Z</time>
    </metadata>
    <wpt lon="101.191602" lat="14.706972">
        <ele>198.000000</ele>
        <time>2015-04-24T08:42:25Z</time>
        <name>Arunvit Resort</name>
        <sym>Lodging</sym>
        <extensions>
            <gpxx:WaypointExtension xmlns:gpxx="http://www.garmin.com/xmlschemas/GpxExtensions/v3">
                <gpxx:DisplayMode>SymbolAndName</gpxx:DisplayMode>
            </gpxx:WaypointExtension>
        </extensions>
    </wpt>
    <wpt lon="101.235484" lat="14.724364">
        <ele>212.000000</ele>
        <time>2015-04-25T07:30:13Z</time>
        <name>Water Sunday</name>
        <sym>Drinking Water</sym>
        <extensions>
            <gpxx:WaypointExtension xmlns:gpxx="http://www.garmin.com/xmlschemas/GpxExtensions/v3">
                <gpxx:DisplayMode>SymbolAndName</gpxx:DisplayMode>
            </gpxx:WaypointExtension>
        </extensions>
    </wpt>
    <trk>
        <name>Sunday</name>
        <extensions>
            <gpxx:TrackExtension xmlns:gpxx="http://www.garmin.com/xmlschemas/GpxExtensions/v3">
                <gpxx:DisplayColor>Green</gpxx:DisplayColor>
            </gpxx:TrackExtension>
        </extensions>
        <trkseg>
            <trkpt lon="101.191838" lat="14.707058">
                <ele>199.130000</ele>
                <time>2016-10-30T02:59:47Z</time>
            </trkpt>
            <trkpt lon="101.191372" lat="14.707318">
                <ele>198.170000</ele>
                <time>2016-10-30T03:00:09Z</time>
            </trkpt>
            <trkpt lon="101.191099" lat="14.707688">
                <ele>197.210000</ele>
                <time>2016-10-30T03:00:21Z</time>
            </trkpt>
            <trkpt lon="101.191007" lat="14.708292">
                <ele>193.360000</ele>
                <time>2016-10-30T03:00:41Z</time>
            </trkpt>
            <trkpt lon="101.191347" lat="14.708951">
                <ele>185.670000</ele>
                <time>2016-10-30T03:01:05Z</time>
            </trkpt>
            <trkpt lon="101.190952" lat="14.709612">
                <ele>186.150000</ele>
                <time>2016-10-30T03:01:28Z</time>
            </trkpt>
            <trkpt lon="101.190830" lat="14.709889">
                <ele>183.750000</ele>
                <time>2016-10-30T03:01:38Z</time>
            </trkpt>
            <trkpt lon="101.191011" lat="14.709985">
                <ele>181.830000</ele>
                <time>2016-10-30T03:01:49Z</time>
            </trkpt>
            <trkpt lon="101.191054" lat="14.709953">
                <ele>181.350000</ele>
                <time>2016-10-30T03:01:51Z</time>
            </trkpt>
            <trkpt lon="101.191811" lat="14.708974">
                <ele>197.690000</ele>
                <time>2016-10-30T03:02:33Z</time>
            </trkpt>
            <trkpt lon="101.192451" lat="14.708913">
                <ele>204.900000</ele>
                <time>2016-10-30T03:02:54Z</time>
            </trkpt>
            <trkpt lon="101.192708" lat="14.708897">
                <ele>203.940000</ele>
                <time>2016-10-30T03:03:03Z</time>
            </trkpt>
            <trkpt lon="101.194430" lat="14.709238">
                <ele>195.770000</ele>
                <time>2016-10-30T03:03:51Z</time>
            </trkpt>
            <trkpt lon="101.197414" lat="14.710421">
                <ele>202.490000</ele>
                <time>2016-10-30T03:05:26Z</time>
            </trkpt>
            <trkpt lon="101.200241" lat="14.711824">
                <ele>210.190000</ele>
                <time>2016-10-30T03:07:27Z</time>
            </trkpt>
            <trkpt lon="101.201146" lat="14.712476">
                <ele>217.400000</ele>
                <time>2016-10-30T03:07:58Z</time>
            </trkpt>
            <trkpt lon="101.201894" lat="14.712880">
                <ele>215.470000</ele>
                <time>2016-10-30T03:08:32Z</time>
            </trkpt>
            <trkpt lon="101.202312" lat="14.712849">
                <ele>223.160000</ele>
                <time>2016-10-30T03:09:19Z</time>
            </trkpt>
            <trkpt lon="101.202667" lat="14.712715">
                <ele>228.450000</ele>
                <time>2016-10-30T03:10:08Z</time>
            </trkpt>
            <trkpt lon="101.203016" lat="14.712509">
                <ele>230.370000</ele>
                <time>2016-10-30T03:10:56Z</time>
            </trkpt>
            <trkpt lon="101.203130" lat="14.712492">
                <ele>234.220000</ele>
                <time>2016-10-30T03:11:31Z</time>
            </trkpt>
            <trkpt lon="101.203778" lat="14.712379">
                <ele>234.220000</ele>
                <time>2016-10-30T03:11:59Z</time>
            </trkpt>
            <trkpt lon="101.204044" lat="14.712166">
                <ele>234.700000</ele>
                <time>2016-10-30T03:12:12Z</time>
            </trkpt>
            <trkpt lon="101.204521" lat="14.711971">
                <ele>233.260000</ele>
                <time>2016-10-30T03:12:26Z</time>
            </trkpt>
            <trkpt lon="101.205088" lat="14.711398">
                <ele>223.640000</ele>
                <time>2016-10-30T03:12:57Z</time>
            </trkpt>
            <trkpt lon="101.204518" lat="14.713123">
                <ele>228.450000</ele>
                <time>2016-10-30T03:14:14Z</time>
            </trkpt>
            <trkpt lon="101.204847" lat="14.713763">
                <ele>234.700000</ele>
                <time>2016-10-30T03:14:58Z</time>
            </trkpt>
            <trkpt lon="101.205530" lat="14.714142">
                <ele>236.620000</ele>
                <time>2016-10-30T03:15:29Z</time>
            </trkpt>
            <trkpt lon="101.206891" lat="14.714784">
                <ele>230.850000</ele>
                <time>2016-10-30T03:16:05Z</time>
            </trkpt>
            <trkpt lon="101.207348" lat="14.715207">
                <ele>234.700000</ele>
                <time>2016-10-30T03:16:34Z</time>
            </trkpt>
            <trkpt lon="101.208314" lat="14.715795">
                <ele>230.370000</ele>
                <time>2016-10-30T03:17:04Z</time>
            </trkpt>
            <trkpt lon="101.208688" lat="14.715789">
                <ele>229.410000</ele>
                <time>2016-10-30T03:17:15Z</time>
            </trkpt>
            <trkpt lon="101.208935" lat="14.715229">
                <ele>229.890000</ele>
                <time>2016-10-30T03:17:40Z</time>
            </trkpt>
            <trkpt lon="101.209165" lat="14.714976">
                <ele>225.090000</ele>
                <time>2016-10-30T03:17:54Z</time>
            </trkpt>
            <trkpt lon="101.209222" lat="14.714874">
                <ele>220.760000</ele>
                <time>2016-10-30T03:18:07Z</time>
            </trkpt>
            <trkpt lon="101.208841" lat="14.714183">
                <ele>215.470000</ele>
                <time>2016-10-30T03:18:39Z</time>
            </trkpt>
            <trkpt lon="101.208518" lat="14.713898">
                <ele>213.550000</ele>
                <time>2016-10-30T03:18:51Z</time>
            </trkpt>
            <trkpt lon="101.207703" lat="14.713582">
                <ele>222.680000</ele>
                <time>2016-10-30T03:19:21Z</time>
            </trkpt>
            <trkpt lon="101.207366" lat="14.713374">
                <ele>223.640000</ele>
                <time>2016-10-30T03:19:36Z</time>
            </trkpt>
            <trkpt lon="101.207220" lat="14.713041">
                <ele>220.760000</ele>
                <time>2016-10-30T03:19:48Z</time>
            </trkpt>
            <trkpt lon="101.207284" lat="14.712647">
                <ele>216.910000</ele>
                <time>2016-10-30T03:20:01Z</time>
            </trkpt>
            <trkpt lon="101.208155" lat="14.712310">
                <ele>214.030000</ele>
                <time>2016-10-30T03:20:31Z</time>
            </trkpt>
            <trkpt lon="101.208706" lat="14.712621">
                <ele>214.510000</ele>
                <time>2016-10-30T03:20:53Z</time>
            </trkpt>
            <trkpt lon="101.208925" lat="14.712871">
                <ele>214.990000</ele>
                <time>2016-10-30T03:21:05Z</time>
            </trkpt>
            <trkpt lon="101.209213" lat="14.713095">
                <ele>214.030000</ele>
                <time>2016-10-30T03:21:17Z</time>
            </trkpt>
            <trkpt lon="101.209948" lat="14.713194">
                <ele>215.950000</ele>
                <time>2016-10-30T03:21:40Z</time>
            </trkpt>
            <trkpt lon="101.210140" lat="14.713408">
                <ele>215.950000</ele>
                <time>2016-10-30T03:21:51Z</time>
            </trkpt>
            <trkpt lon="101.210155" lat="14.713696">
                <ele>216.430000</ele>
                <time>2016-10-30T03:22:05Z</time>
            </trkpt>
            <trkpt lon="101.209922" lat="14.713929">
                <ele>217.880000</ele>
                <time>2016-10-30T03:22:17Z</time>
            </trkpt>
            <trkpt lon="101.209792" lat="14.714304">
                <ele>216.430000</ele>
                <time>2016-10-30T03:22:31Z</time>
            </trkpt>
            <trkpt lon="101.210190" lat="14.715154">
                <ele>213.550000</ele>
                <time>2016-10-30T03:22:58Z</time>
            </trkpt>
            <trkpt lon="101.210577" lat="14.715321">
                <ele>211.630000</ele>
                <time>2016-10-30T03:23:13Z</time>
            </trkpt>
            <trkpt lon="101.211019" lat="14.715566">
                <ele>209.700000</ele>
                <time>2016-10-30T03:23:29Z</time>
            </trkpt>
            <trkpt lon="101.213034" lat="14.716236">
                <ele>202.490000</ele>
                <time>2016-10-30T03:24:47Z</time>
            </trkpt>
            <trkpt lon="101.213521" lat="14.716436">
                <ele>206.340000</ele>
                <time>2016-10-30T03:25:15Z</time>
            </trkpt>
            <trkpt lon="101.213980" lat="14.716827">
                <ele>207.780000</ele>
                <time>2016-10-30T03:25:43Z</time>
            </trkpt>
            <trkpt lon="101.214002" lat="14.716850">
                <ele>208.260000</ele>
                <time>2016-10-30T03:25:45Z</time>
            </trkpt>
            <trkpt lon="101.214156" lat="14.717027">
                <ele>212.590000</ele>
                <time>2016-10-30T03:26:00Z</time>
            </trkpt>
            <trkpt lon="101.214385" lat="14.717213">
                <ele>213.550000</ele>
                <time>2016-10-30T03:26:15Z</time>
            </trkpt>
            <trkpt lon="101.215500" lat="14.717390">
                <ele>202.490000</ele>
                <time>2016-10-30T03:26:46Z</time>
            </trkpt>
            <trkpt lon="101.216161" lat="14.717861">
                <ele>197.690000</ele>
                <time>2016-10-30T03:27:05Z</time>
            </trkpt>
            <trkpt lon="101.216042" lat="14.718487">
                <ele>195.770000</ele>
                <time>2016-10-30T03:27:32Z</time>
            </trkpt>
            <trkpt lon="101.215898" lat="14.718610">
                <ele>195.280000</ele>
                <time>2016-10-30T03:27:36Z</time>
            </trkpt>
            <trkpt lon="101.214944" lat="14.718966">
                <ele>195.280000</ele>
                <time>2016-10-30T03:28:00Z</time>
            </trkpt>
            <trkpt lon="101.214474" lat="14.718952">
                <ele>198.650000</ele>
                <time>2016-10-30T03:28:22Z</time>
            </trkpt>
            <trkpt lon="101.214274" lat="14.719193">
                <ele>196.250000</ele>
                <time>2016-10-30T03:28:34Z</time>
            </trkpt>
            <trkpt lon="101.214113" lat="14.720096">
                <ele>190.480000</ele>
                <time>2016-10-30T03:28:55Z</time>
            </trkpt>
            <trkpt lon="101.213875" lat="14.720512">
                <ele>189.040000</ele>
                <time>2016-10-30T03:29:07Z</time>
            </trkpt>
            <trkpt lon="101.213390" lat="14.720723">
                <ele>189.040000</ele>
                <time>2016-10-30T03:29:26Z</time>
            </trkpt>
            <trkpt lon="101.213417" lat="14.721151">
                <ele>194.320000</ele>
                <time>2016-10-30T03:29:55Z</time>
            </trkpt>
            <trkpt lon="101.214242" lat="14.721431">
                <ele>191.440000</ele>
                <time>2016-10-30T03:30:25Z</time>
            </trkpt>
            <trkpt lon="101.214479" lat="14.721673">
                <ele>194.320000</ele>
                <time>2016-10-30T03:30:46Z</time>
            </trkpt>
            <trkpt lon="101.215276" lat="14.721392">
                <ele>187.590000</ele>
                <time>2016-10-30T03:31:28Z</time>
            </trkpt>
            <trkpt lon="101.216846" lat="14.721314">
                <ele>186.630000</ele>
                <time>2016-10-30T03:32:07Z</time>
            </trkpt>
            <trkpt lon="101.217016" lat="14.721407">
                <ele>186.150000</ele>
                <time>2016-10-30T03:32:11Z</time>
            </trkpt>
            <trkpt lon="101.217542" lat="14.721725">
                <ele>183.750000</ele>
                <time>2016-10-30T03:32:23Z</time>
            </trkpt>
            <trkpt lon="101.217994" lat="14.721712">
                <ele>187.590000</ele>
                <time>2016-10-30T03:32:45Z</time>
            </trkpt>
            <trkpt lon="101.218011" lat="14.720458">
                <ele>199.130000</ele>
                <time>2016-10-30T03:33:46Z</time>
            </trkpt>
            <trkpt lon="101.218020" lat="14.720050">
                <ele>200.090000</ele>
                <time>2016-10-30T03:34:05Z</time>
            </trkpt>
            <trkpt lon="101.218081" lat="14.719398">
                <ele>197.210000</ele>
                <time>2016-10-30T03:34:24Z</time>
            </trkpt>
            <trkpt lon="101.216741" lat="14.715647">
                <ele>193.840000</ele>
                <time>2016-10-30T03:35:52Z</time>
            </trkpt>
            <trkpt lon="101.216850" lat="14.715367">
                <ele>194.320000</ele>
                <time>2016-10-30T03:36:03Z</time>
            </trkpt>
            <trkpt lon="101.219284" lat="14.714316">
                <ele>198.170000</ele>
                <time>2016-10-30T03:37:16Z</time>
            </trkpt>
            <trkpt lon="101.219624" lat="14.714405">
                <ele>200.090000</ele>
                <time>2016-10-30T03:37:28Z</time>
            </trkpt>
            <trkpt lon="101.220339" lat="14.714986">
                <ele>198.650000</ele>
                <time>2016-10-30T03:37:52Z</time>
            </trkpt>
            <trkpt lon="101.221171" lat="14.715808">
                <ele>197.210000</ele>
                <time>2016-10-30T03:38:16Z</time>
            </trkpt>
            <trkpt lon="101.221731" lat="14.716130">
                <ele>197.690000</ele>
                <time>2016-10-30T03:38:31Z</time>
            </trkpt>
            <trkpt lon="101.221900" lat="14.716171">
                <ele>197.690000</ele>
                <time>2016-10-30T03:38:35Z</time>
            </trkpt>
            <trkpt lon="101.222470" lat="14.716061">
                <ele>196.730000</ele>
                <time>2016-10-30T03:38:50Z</time>
            </trkpt>
            <trkpt lon="101.223915" lat="14.713789">
                <ele>200.570000</ele>
                <time>2016-10-30T03:40:24Z</time>
            </trkpt>
            <trkpt lon="101.224200" lat="14.713189">
                <ele>200.570000</ele>
                <time>2016-10-30T03:40:43Z</time>
            </trkpt>
            <trkpt lon="101.224590" lat="14.712729">
                <ele>202.010000</ele>
                <time>2016-10-30T03:41:01Z</time>
            </trkpt>
            <trkpt lon="101.225094" lat="14.712470">
                <ele>203.940000</ele>
                <time>2016-10-30T03:41:19Z</time>
            </trkpt>
            <trkpt lon="101.225625" lat="14.712460">
                <ele>204.900000</ele>
                <time>2016-10-30T03:41:35Z</time>
            </trkpt>
            <trkpt lon="101.226181" lat="14.712212">
                <ele>207.780000</ele>
                <time>2016-10-30T03:41:54Z</time>
            </trkpt>
            <trkpt lon="101.226947" lat="14.711682">
                <ele>209.220000</ele>
                <time>2016-10-30T03:42:27Z</time>
            </trkpt>
            <trkpt lon="101.228162" lat="14.709654">
                <ele>218.360000</ele>
                <time>2016-10-30T03:43:57Z</time>
            </trkpt>
            <trkpt lon="101.228501" lat="14.709438">
                <ele>220.280000</ele>
                <time>2016-10-30T03:44:14Z</time>
            </trkpt>
            <trkpt lon="101.229849" lat="14.709141">
                <ele>231.330000</ele>
                <time>2016-10-30T03:45:39Z</time>
            </trkpt>
            <trkpt lon="101.230485" lat="14.709465">
                <ele>237.100000</ele>
                <time>2016-10-30T03:46:18Z</time>
            </trkpt>
            <trkpt lon="101.230908" lat="14.709811">
                <ele>239.020000</ele>
                <time>2016-10-30T03:46:52Z</time>
            </trkpt>
            <trkpt lon="101.231384" lat="14.710008">
                <ele>242.390000</ele>
                <time>2016-10-30T03:47:23Z</time>
            </trkpt>
            <trkpt lon="101.232352" lat="14.710485">
                <ele>247.200000</ele>
                <time>2016-10-30T03:48:23Z</time>
            </trkpt>
            <trkpt lon="101.232627" lat="14.710896">
                <ele>248.640000</ele>
                <time>2016-10-30T03:48:57Z</time>
            </trkpt>
            <trkpt lon="101.233280" lat="14.711269">
                <ele>253.930000</ele>
                <time>2016-10-30T03:49:45Z</time>
            </trkpt>
            <trkpt lon="101.234670" lat="14.712181">
                <ele>265.460000</ele>
                <time>2016-10-30T03:51:39Z</time>
            </trkpt>
            <trkpt lon="101.235493" lat="14.712448">
                <ele>261.620000</ele>
                <time>2016-10-30T03:52:10Z</time>
            </trkpt>
            <trkpt lon="101.235831" lat="14.712404">
                <ele>257.770000</ele>
                <time>2016-10-30T03:52:24Z</time>
            </trkpt>
            <trkpt lon="101.236187" lat="14.712078">
                <ele>253.440000</ele>
                <time>2016-10-30T03:52:47Z</time>
            </trkpt>
            <trkpt lon="101.236159" lat="14.711628">
                <ele>255.850000</ele>
                <time>2016-10-30T03:53:17Z</time>
            </trkpt>
            <trkpt lon="101.236407" lat="14.711541">
                <ele>254.410000</ele>
                <time>2016-10-30T03:53:26Z</time>
            </trkpt>
            <trkpt lon="101.238816" lat="14.712546">
                <ele>243.830000</ele>
                <time>2016-10-30T03:54:40Z</time>
            </trkpt>
            <trkpt lon="101.239895" lat="14.712789">
                <ele>242.390000</ele>
                <time>2016-10-30T03:55:11Z</time>
            </trkpt>
            <trkpt lon="101.240402" lat="14.712794">
                <ele>239.990000</ele>
                <time>2016-10-30T03:55:26Z</time>
            </trkpt>
            <trkpt lon="101.240634" lat="14.712768">
                <ele>239.020000</ele>
                <time>2016-10-30T03:55:47Z</time>
            </trkpt>
            <trkpt lon="101.240928" lat="14.713351">
                <ele>241.430000</ele>
                <time>2016-10-30T03:56:14Z</time>
            </trkpt>
            <trkpt lon="101.241133" lat="14.713906">
                <ele>241.910000</ele>
                <time>2016-10-30T03:56:31Z</time>
            </trkpt>
            <trkpt lon="101.241355" lat="14.714401">
                <ele>240.470000</ele>
                <time>2016-10-30T03:56:45Z</time>
            </trkpt>
            <trkpt lon="101.242240" lat="14.717716">
                <ele>232.300000</ele>
                <time>2016-10-30T03:58:15Z</time>
            </trkpt>
            <trkpt lon="101.242808" lat="14.718844">
                <ele>231.330000</ele>
                <time>2016-10-30T03:58:56Z</time>
            </trkpt>
            <trkpt lon="101.243684" lat="14.719126">
                <ele>232.300000</ele>
                <time>2016-10-30T03:59:36Z</time>
            </trkpt>
            <trkpt lon="101.244034" lat="14.719570">
                <ele>231.810000</ele>
                <time>2016-10-30T03:59:50Z</time>
            </trkpt>
            <trkpt lon="101.244153" lat="14.719955">
                <ele>230.370000</ele>
                <time>2016-10-30T03:59:58Z</time>
            </trkpt>
            <trkpt lon="101.244260" lat="14.720626">
                <ele>227.010000</ele>
                <time>2016-10-30T04:00:12Z</time>
            </trkpt>
            <trkpt lon="101.243934" lat="14.720861">
                <ele>226.530000</ele>
                <time>2016-10-30T04:00:21Z</time>
            </trkpt>
            <trkpt lon="101.243485" lat="14.721780">
                <ele>224.120000</ele>
                <time>2016-10-30T04:00:41Z</time>
            </trkpt>
            <trkpt lon="101.243323" lat="14.721987">
                <ele>222.680000</ele>
                <time>2016-10-30T04:00:47Z</time>
            </trkpt>
            <trkpt lon="101.243636" lat="14.723421">
                <ele>210.670000</ele>
                <time>2016-10-30T04:01:24Z</time>
            </trkpt>
            <trkpt lon="101.243987" lat="14.724008">
                <ele>214.990000</ele>
                <time>2016-10-30T04:01:50Z</time>
            </trkpt>
            <trkpt lon="101.244047" lat="14.724367">
                <ele>216.910000</ele>
                <time>2016-10-30T04:02:03Z</time>
            </trkpt>
            <trkpt lon="101.244112" lat="14.724739">
                <ele>216.910000</ele>
                <time>2016-10-30T04:02:16Z</time>
            </trkpt>
            <trkpt lon="101.244303" lat="14.726110">
                <ele>208.260000</ele>
                <time>2016-10-30T04:02:59Z</time>
            </trkpt>
            <trkpt lon="101.244697" lat="14.727196">
                <ele>208.260000</ele>
                <time>2016-10-30T04:03:52Z</time>
            </trkpt>
            <trkpt lon="101.244662" lat="14.728095">
                <ele>213.550000</ele>
                <time>2016-10-30T04:04:45Z</time>
            </trkpt>
            <trkpt lon="101.245949" lat="14.728019">
                <ele>220.760000</ele>
                <time>2016-10-30T04:06:01Z</time>
            </trkpt>
            <trkpt lon="101.246546" lat="14.727895">
                <ele>222.680000</ele>
                <time>2016-10-30T04:06:37Z</time>
            </trkpt>
            <trkpt lon="101.247192" lat="14.727323">
                <ele>227.490000</ele>
                <time>2016-10-30T04:07:50Z</time>
            </trkpt>
            <trkpt lon="101.247404" lat="14.727453">
                <ele>230.850000</ele>
                <time>2016-10-30T04:08:34Z</time>
            </trkpt>
            <trkpt lon="101.247478" lat="14.727652">
                <ele>237.580000</ele>
                <time>2016-10-30T04:09:01Z</time>
            </trkpt>
            <trkpt lon="101.247231" lat="14.728028">
                <ele>239.990000</ele>
                <time>2016-10-30T04:09:31Z</time>
            </trkpt>
            <trkpt lon="101.247302" lat="14.728204">
                <ele>235.660000</ele>
                <time>2016-10-30T04:10:09Z</time>
            </trkpt>
            <trkpt lon="101.247633" lat="14.728255">
                <ele>239.990000</ele>
                <time>2016-10-30T04:10:47Z</time>
            </trkpt>
            <trkpt lon="101.248214" lat="14.728062">
                <ele>231.810000</ele>
                <time>2016-10-30T04:11:43Z</time>
            </trkpt>
            <trkpt lon="101.248431" lat="14.728365">
                <ele>231.810000</ele>
                <time>2016-10-30T04:12:09Z</time>
            </trkpt>
            <trkpt lon="101.248894" lat="14.729205">
                <ele>222.200000</ele>
                <time>2016-10-30T04:13:14Z</time>
            </trkpt>
            <trkpt lon="101.248531" lat="14.729541">
                <ele>218.840000</ele>
                <time>2016-10-30T04:13:34Z</time>
            </trkpt>
            <trkpt lon="101.247974" lat="14.729280">
                <ele>217.880000</ele>
                <time>2016-10-30T04:14:03Z</time>
            </trkpt>
            <trkpt lon="101.247400" lat="14.729501">
                <ele>224.610000</ele>
                <time>2016-10-30T04:14:50Z</time>
            </trkpt>
            <trkpt lon="101.247102" lat="14.729479">
                <ele>226.530000</ele>
                <time>2016-10-30T04:15:05Z</time>
            </trkpt>
            <trkpt lon="101.246901" lat="14.729389">
                <ele>227.490000</ele>
                <time>2016-10-30T04:15:21Z</time>
            </trkpt>
            <trkpt lon="101.246434" lat="14.729039">
                <ele>220.280000</ele>
                <time>2016-10-30T04:15:42Z</time>
            </trkpt>
            <trkpt lon="101.246025" lat="14.729165">
                <ele>216.430000</ele>
                <time>2016-10-30T04:15:55Z</time>
            </trkpt>
            <trkpt lon="101.245305" lat="14.729115">
                <ele>221.720000</ele>
                <time>2016-10-30T04:16:22Z</time>
            </trkpt>
            <trkpt lon="101.244906" lat="14.729115">
                <ele>226.050000</ele>
                <time>2016-10-30T04:16:52Z</time>
            </trkpt>
            <trkpt lon="101.244683" lat="14.729070">
                <ele>223.160000</ele>
                <time>2016-10-30T04:17:02Z</time>
            </trkpt>
            <trkpt lon="101.243749" lat="14.729665">
                <ele>208.740000</ele>
                <time>2016-10-30T04:17:39Z</time>
            </trkpt>
            <trkpt lon="101.242889" lat="14.730557">
                <ele>208.260000</ele>
                <time>2016-10-30T04:18:19Z</time>
            </trkpt>
            <trkpt lon="101.242372" lat="14.731112">
                <ele>203.460000</ele>
                <time>2016-10-30T04:18:46Z</time>
            </trkpt>
            <trkpt lon="101.241762" lat="14.731636">
                <ele>204.900000</ele>
                <time>2016-10-30T04:19:47Z</time>
            </trkpt>
            <trkpt lon="101.239967" lat="14.727798">
                <ele>199.130000</ele>
                <time>2016-10-30T04:22:45Z</time>
            </trkpt>
            <trkpt lon="101.239665" lat="14.727956">
                <ele>199.610000</ele>
                <time>2016-10-30T04:23:07Z</time>
            </trkpt>
            <trkpt lon="101.237963" lat="14.728432">
                <ele>193.840000</ele>
                <time>2016-10-30T04:24:09Z</time>
            </trkpt>
            <trkpt lon="101.237319" lat="14.728260">
                <ele>190.480000</ele>
                <time>2016-10-30T04:24:35Z</time>
            </trkpt>
            <trkpt lon="101.236885" lat="14.728322">
                <ele>191.440000</ele>
                <time>2016-10-30T04:25:05Z</time>
            </trkpt>
            <trkpt lon="101.236492" lat="14.728194">
                <ele>194.320000</ele>
                <time>2016-10-30T04:25:19Z</time>
            </trkpt>
            <trkpt lon="101.235706" lat="14.727950">
                <ele>194.320000</ele>
                <time>2016-10-30T04:25:53Z</time>
            </trkpt>
            <trkpt lon="101.235540" lat="14.724920">
                <ele>206.820000</ele>
                <time>2016-10-30T04:27:54Z</time>
            </trkpt>
            <trkpt lon="101.235529" lat="14.724405">
                <ele>207.780000</ele>
                <time>2016-10-30T04:28:13Z</time>
            </trkpt>
            <trkpt lon="101.235455" lat="14.724267">
                <ele>207.300000</ele>
                <time>2016-10-30T04:28:21Z</time>
            </trkpt>
            <trkpt lon="101.235377" lat="14.724328">
                <ele>206.340000</ele>
                <time>2016-10-30T04:28:29Z</time>
            </trkpt>
            <trkpt lon="101.235341" lat="14.724311">
                <ele>204.900000</ele>
                <time>2016-10-30T04:29:17Z</time>
            </trkpt>
            <trkpt lon="101.235376" lat="14.724311">
                <ele>208.260000</ele>
                <time>2016-10-30T04:30:04Z</time>
            </trkpt>
            <trkpt lon="101.235365" lat="14.724315">
                <ele>205.380000</ele>
                <time>2016-10-30T04:30:31Z</time>
            </trkpt>
            <trkpt lon="101.235410" lat="14.724275">
                <ele>206.820000</ele>
                <time>2016-10-30T04:30:41Z</time>
            </trkpt>
            <trkpt lon="101.235519" lat="14.724335">
                <ele>207.780000</ele>
                <time>2016-10-30T04:30:49Z</time>
            </trkpt>
            <trkpt lon="101.235540" lat="14.724877">
                <ele>206.820000</ele>
                <time>2016-10-30T04:31:05Z</time>
            </trkpt>
            <trkpt lon="101.235634" lat="14.726583">
                <ele>200.090000</ele>
                <time>2016-10-30T04:31:43Z</time>
            </trkpt>
            <trkpt lon="101.235688" lat="14.727930">
                <ele>193.840000</ele>
                <time>2016-10-30T04:32:11Z</time>
            </trkpt>
            <trkpt lon="101.235697" lat="14.727963">
                <ele>192.880000</ele>
                <time>2016-10-30T04:32:24Z</time>
            </trkpt>
            <trkpt lon="101.235695" lat="14.727975">
                <ele>190.000000</ele>
                <time>2016-10-30T04:32:43Z</time>
            </trkpt>
            <trkpt lon="101.234753" lat="14.728002">
                <ele>190.960000</ele>
                <time>2016-10-30T04:33:09Z</time>
            </trkpt>
            <trkpt lon="101.234570" lat="14.728274">
                <ele>190.480000</ele>
                <time>2016-10-30T04:33:16Z</time>
            </trkpt>
            <trkpt lon="101.234551" lat="14.729323">
                <ele>187.110000</ele>
                <time>2016-10-30T04:33:34Z</time>
            </trkpt>
            <trkpt lon="101.235170" lat="14.731297">
                <ele>186.150000</ele>
                <time>2016-10-30T04:34:13Z</time>
            </trkpt>
            <trkpt lon="101.234485" lat="14.731625">
                <ele>187.590000</ele>
                <time>2016-10-30T04:34:29Z</time>
            </trkpt>
            <trkpt lon="101.234392" lat="14.731805">
                <ele>189.040000</ele>
                <time>2016-10-30T04:34:38Z</time>
            </trkpt>
            <trkpt lon="101.234548" lat="14.732187">
                <ele>192.880000</ele>
                <time>2016-10-30T04:34:56Z</time>
            </trkpt>
            <trkpt lon="101.234737" lat="14.732704">
                <ele>190.000000</ele>
                <time>2016-10-30T04:35:05Z</time>
            </trkpt>
            <trkpt lon="101.235219" lat="14.733964">
                <ele>184.230000</ele>
                <time>2016-10-30T04:35:26Z</time>
            </trkpt>
            <trkpt lon="101.235427" lat="14.734059">
                <ele>184.710000</ele>
                <time>2016-10-30T04:35:32Z</time>
            </trkpt>
            <trkpt lon="101.236489" lat="14.733525">
                <ele>181.350000</ele>
                <time>2016-10-30T04:36:48Z</time>
            </trkpt>
            <trkpt lon="101.236477" lat="14.733524">
                <ele>183.270000</ele>
                <time>2016-10-30T04:36:54Z</time>
            </trkpt>
            <trkpt lon="101.235638" lat="14.733942">
                <ele>188.560000</ele>
                <time>2016-10-30T04:37:20Z</time>
            </trkpt>
            <trkpt lon="101.235438" lat="14.734030">
                <ele>190.000000</ele>
                <time>2016-10-30T04:37:25Z</time>
            </trkpt>
            <trkpt lon="101.235271" lat="14.733981">
                <ele>190.960000</ele>
                <time>2016-10-30T04:37:29Z</time>
            </trkpt>
            <trkpt lon="101.234530" lat="14.732103">
                <ele>192.400000</ele>
                <time>2016-10-30T04:38:30Z</time>
            </trkpt>
            <trkpt lon="101.234357" lat="14.731701">
                <ele>189.520000</ele>
                <time>2016-10-30T04:38:50Z</time>
            </trkpt>
            <trkpt lon="101.234281" lat="14.731703">
                <ele>189.040000</ele>
                <time>2016-10-30T04:39:07Z</time>
            </trkpt>
            <trkpt lon="101.234045" lat="14.730972">
                <ele>182.790000</ele>
                <time>2016-10-30T04:39:34Z</time>
            </trkpt>
            <trkpt lon="101.233710" lat="14.731068">
                <ele>181.350000</ele>
                <time>2016-10-30T04:39:53Z</time>
            </trkpt>
            <trkpt lon="101.233504" lat="14.730965">
                <ele>181.350000</ele>
                <time>2016-10-30T04:40:08Z</time>
            </trkpt>
            <trkpt lon="101.232988" lat="14.731286">
                <ele>180.380000</ele>
                <time>2016-10-30T04:40:34Z</time>
            </trkpt>
            <trkpt lon="101.232599" lat="14.731741">
                <ele>181.350000</ele>
                <time>2016-10-30T04:41:00Z</time>
            </trkpt>
            <trkpt lon="101.232296" lat="14.731715">
                <ele>183.270000</ele>
                <time>2016-10-30T04:41:16Z</time>
            </trkpt>
            <trkpt lon="101.231921" lat="14.731644">
                <ele>182.310000</ele>
                <time>2016-10-30T04:41:31Z</time>
            </trkpt>
            <trkpt lon="101.231735" lat="14.731329">
                <ele>181.830000</ele>
                <time>2016-10-30T04:41:50Z</time>
            </trkpt>
            <trkpt lon="101.231685" lat="14.730775">
                <ele>189.040000</ele>
                <time>2016-10-30T04:42:44Z</time>
            </trkpt>
            <trkpt lon="101.231632" lat="14.730428">
                <ele>190.480000</ele>
                <time>2016-10-30T04:43:12Z</time>
            </trkpt>
            <trkpt lon="101.231294" lat="14.730389">
                <ele>187.590000</ele>
                <time>2016-10-30T04:43:29Z</time>
            </trkpt>
            <trkpt lon="101.230745" lat="14.730373">
                <ele>190.000000</ele>
                <time>2016-10-30T04:44:12Z</time>
            </trkpt>
            <trkpt lon="101.230468" lat="14.730512">
                <ele>188.080000</ele>
                <time>2016-10-30T04:44:26Z</time>
            </trkpt>
            <trkpt lon="101.229053" lat="14.731648">
                <ele>188.080000</ele>
                <time>2016-10-30T04:45:20Z</time>
            </trkpt>
            <trkpt lon="101.228673" lat="14.731717">
                <ele>186.630000</ele>
                <time>2016-10-30T04:45:34Z</time>
            </trkpt>
            <trkpt lon="101.228244" lat="14.731243">
                <ele>183.270000</ele>
                <time>2016-10-30T04:46:00Z</time>
            </trkpt>
            <trkpt lon="101.227925" lat="14.731028">
                <ele>184.230000</ele>
                <time>2016-10-30T04:46:28Z</time>
            </trkpt>
            <trkpt lon="101.227416" lat="14.730976">
                <ele>185.190000</ele>
                <time>2016-10-30T04:47:06Z</time>
            </trkpt>
            <trkpt lon="101.224840" lat="14.731613">
                <ele>190.000000</ele>
                <time>2016-10-30T04:49:31Z</time>
            </trkpt>
            <trkpt lon="101.223909" lat="14.731777">
                <ele>190.480000</ele>
                <time>2016-10-30T04:50:02Z</time>
            </trkpt>
            <trkpt lon="101.223586" lat="14.731969">
                <ele>188.560000</ele>
                <time>2016-10-30T04:50:14Z</time>
            </trkpt>
            <trkpt lon="101.222777" lat="14.732029">
                <ele>192.880000</ele>
                <time>2016-10-30T04:51:01Z</time>
            </trkpt>
            <trkpt lon="101.222363" lat="14.732167">
                <ele>190.000000</ele>
                <time>2016-10-30T04:51:21Z</time>
            </trkpt>
            <trkpt lon="101.222240" lat="14.730393">
                <ele>197.210000</ele>
                <time>2016-10-30T04:52:31Z</time>
            </trkpt>
            <trkpt lon="101.222084" lat="14.729019">
                <ele>195.280000</ele>
                <time>2016-10-30T04:53:12Z</time>
            </trkpt>
            <trkpt lon="101.221992" lat="14.728722">
                <ele>193.360000</ele>
                <time>2016-10-30T04:53:20Z</time>
            </trkpt>
            <trkpt lon="101.219976" lat="14.729305">
                <ele>187.110000</ele>
                <time>2016-10-30T04:54:10Z</time>
            </trkpt>
            <trkpt lon="101.218447" lat="14.729449">
                <ele>179.900000</ele>
                <time>2016-10-30T04:54:36Z</time>
            </trkpt>
            <trkpt lon="101.214903" lat="14.730318">
                <ele>178.940000</ele>
                <time>2016-10-30T04:55:54Z</time>
            </trkpt>
            <trkpt lon="101.214237" lat="14.730514">
                <ele>175.580000</ele>
                <time>2016-10-30T04:56:09Z</time>
            </trkpt>
            <trkpt lon="101.212977" lat="14.731037">
                <ele>174.620000</ele>
                <time>2016-10-30T04:56:46Z</time>
            </trkpt>
            <trkpt lon="101.212075" lat="14.732625">
                <ele>170.770000</ele>
                <time>2016-10-30T04:57:24Z</time>
            </trkpt>
            <trkpt lon="101.211456" lat="14.733864">
                <ele>172.210000</ele>
                <time>2016-10-30T04:58:06Z</time>
            </trkpt>
            <trkpt lon="101.210667" lat="14.735156">
                <ele>170.770000</ele>
                <time>2016-10-30T04:58:55Z</time>
            </trkpt>
            <trkpt lon="101.211639" lat="14.733602">
                <ele>170.290000</ele>
                <time>2016-10-30T04:59:59Z</time>
            </trkpt>
            <trkpt lon="101.211509" lat="14.733353">
                <ele>167.890000</ele>
                <time>2016-10-30T05:00:17Z</time>
            </trkpt>
            <trkpt lon="101.211713" lat="14.733448">
                <ele>168.850000</ele>
                <time>2016-10-30T05:00:37Z</time>
            </trkpt>
            <trkpt lon="101.211738" lat="14.733403">
                <ele>168.850000</ele>
                <time>2016-10-30T05:00:39Z</time>
            </trkpt>
            <trkpt lon="101.211767" lat="14.733351">
                <ele>169.330000</ele>
                <time>2016-10-30T05:00:41Z</time>
            </trkpt>
            <trkpt lon="101.212073" lat="14.732632">
                <ele>168.370000</ele>
                <time>2016-10-30T05:01:05Z</time>
            </trkpt>
            <trkpt lon="101.211939" lat="14.732528">
                <ele>168.850000</ele>
                <time>2016-10-30T05:01:17Z</time>
            </trkpt>
            <trkpt lon="101.211501" lat="14.731987">
                <ele>168.370000</ele>
                <time>2016-10-30T05:02:11Z</time>
            </trkpt>
            <trkpt lon="101.210813" lat="14.732476">
                <ele>162.600000</ele>
                <time>2016-10-30T05:03:01Z</time>
            </trkpt>
            <trkpt lon="101.210580" lat="14.732602">
                <ele>166.450000</ele>
                <time>2016-10-30T05:03:25Z</time>
            </trkpt>
            <trkpt lon="101.210269" lat="14.732723">
                <ele>167.890000</ele>
                <time>2016-10-30T05:03:36Z</time>
            </trkpt>
            <trkpt lon="101.209882" lat="14.732659">
                <ele>166.450000</ele>
                <time>2016-10-30T05:03:50Z</time>
            </trkpt>
            <trkpt lon="101.210074" lat="14.731751">
                <ele>167.410000</ele>
                <time>2016-10-30T05:04:20Z</time>
            </trkpt>
            <trkpt lon="101.211016" lat="14.730145">
                <ele>172.210000</ele>
                <time>2016-10-30T05:05:22Z</time>
            </trkpt>
            <trkpt lon="101.211264" lat="14.729750">
                <ele>170.770000</ele>
                <time>2016-10-30T05:05:34Z</time>
            </trkpt>
            <trkpt lon="101.211292" lat="14.729209">
                <ele>172.690000</ele>
                <time>2016-10-30T05:05:48Z</time>
            </trkpt>
            <trkpt lon="101.209265" lat="14.728386">
                <ele>176.540000</ele>
                <time>2016-10-30T05:06:53Z</time>
            </trkpt>
            <trkpt lon="101.207866" lat="14.727669">
                <ele>179.900000</ele>
                <time>2016-10-30T05:07:40Z</time>
            </trkpt>
            <trkpt lon="101.207420" lat="14.727450">
                <ele>184.230000</ele>
                <time>2016-10-30T05:08:12Z</time>
            </trkpt>
            <trkpt lon="101.205570" lat="14.726945">
                <ele>183.750000</ele>
                <time>2016-10-30T05:09:11Z</time>
            </trkpt>
            <trkpt lon="101.203678" lat="14.726539">
                <ele>181.350000</ele>
                <time>2016-10-30T05:09:52Z</time>
            </trkpt>
            <trkpt lon="101.201262" lat="14.726363">
                <ele>190.960000</ele>
                <time>2015-04-25T08:25:23Z</time>
            </trkpt>
            <trkpt lon="101.201143" lat="14.727181">
                <ele>201.050000</ele>
                <time>2015-04-25T08:26:35Z</time>
            </trkpt>
            <trkpt lon="101.201102" lat="14.727333">
                <ele>200.570000</ele>
                <time>2015-04-25T08:26:46Z</time>
            </trkpt>
            <trkpt lon="101.201007" lat="14.727792">
                <ele>204.900000</ele>
                <time>2015-04-25T08:27:14Z</time>
            </trkpt>
            <trkpt lon="101.200935" lat="14.728047">
                <ele>205.380000</ele>
                <time>2015-04-25T08:27:29Z</time>
            </trkpt>
            <trkpt lon="101.200897" lat="14.728217">
                <ele>202.490000</ele>
                <time>2015-04-25T08:27:35Z</time>
            </trkpt>
            <trkpt lon="101.200642" lat="14.728660">
                <ele>203.940000</ele>
                <time>2015-04-25T08:27:50Z</time>
            </trkpt>
            <trkpt lon="101.200047" lat="14.729071">
                <ele>214.510000</ele>
                <time>2015-04-25T08:28:53Z</time>
            </trkpt>
            <trkpt lon="101.199923" lat="14.729201">
                <ele>214.510000</ele>
                <time>2015-04-25T08:29:09Z</time>
            </trkpt>
            <trkpt lon="101.199806" lat="14.729217">
                <ele>215.470000</ele>
                <time>2015-04-25T08:29:25Z</time>
            </trkpt>
            <trkpt lon="101.199775" lat="14.729182">
                <ele>217.400000</ele>
                <time>2015-04-25T08:30:10Z</time>
            </trkpt>
            <trkpt lon="101.199786" lat="14.728220">
                <ele>209.220000</ele>
                <time>2015-04-25T08:30:45Z</time>
            </trkpt>
            <trkpt lon="101.199623" lat="14.727788">
                <ele>202.010000</ele>
                <time>2015-04-25T08:30:58Z</time>
            </trkpt>
            <trkpt lon="101.199528" lat="14.727602">
                <ele>199.130000</ele>
                <time>2015-04-25T08:31:03Z</time>
            </trkpt>
            <trkpt lon="101.199216" lat="14.727379">
                <ele>193.840000</ele>
                <time>2015-04-25T08:31:13Z</time>
            </trkpt>
            <trkpt lon="101.198459" lat="14.727611">
                <ele>191.920000</ele>
                <time>2015-04-25T08:31:37Z</time>
            </trkpt>
            <trkpt lon="101.198484" lat="14.727769">
                <ele>193.360000</ele>
                <time>2015-04-25T08:31:51Z</time>
            </trkpt>
            <trkpt lon="101.198393" lat="14.728284">
                <ele>192.880000</ele>
                <time>2015-04-25T08:32:17Z</time>
            </trkpt>
            <trkpt lon="101.197762" lat="14.728186">
                <ele>189.520000</ele>
                <time>2015-04-25T08:32:34Z</time>
            </trkpt>
            <trkpt lon="101.196790" lat="14.728157">
                <ele>182.790000</ele>
                <time>2015-04-25T08:32:58Z</time>
            </trkpt>
            <trkpt lon="101.196633" lat="14.727809">
                <ele>184.230000</ele>
                <time>2015-04-25T08:33:14Z</time>
            </trkpt>
            <trkpt lon="101.196425" lat="14.727102">
                <ele>172.690000</ele>
                <time>2016-10-30T05:13:41Z</time>
            </trkpt>
            <trkpt lon="101.195470" lat="14.727098">
                <ele>166.450000</ele>
                <time>2016-10-30T05:13:57Z</time>
            </trkpt>
            <trkpt lon="101.192824" lat="14.726853">
                <ele>167.890000</ele>
                <time>2016-10-30T05:14:59Z</time>
            </trkpt>
            <trkpt lon="101.192068" lat="14.726757">
                <ele>158.750000</ele>
                <time>2016-10-30T05:15:27Z</time>
            </trkpt>
            <trkpt lon="101.191955" lat="14.726299">
                <ele>173.660000</ele>
                <time>2016-10-30T05:16:20Z</time>
            </trkpt>
            <trkpt lon="101.191713" lat="14.726160">
                <ele>175.100000</ele>
                <time>2016-10-30T05:16:33Z</time>
            </trkpt>
            <trkpt lon="101.191540" lat="14.725834">
                <ele>174.140000</ele>
                <time>2016-10-30T05:16:46Z</time>
            </trkpt>
            <trkpt lon="101.191283" lat="14.725289">
                <ele>177.500000</ele>
                <time>2016-10-30T05:17:10Z</time>
            </trkpt>
            <trkpt lon="101.191305" lat="14.725077">
                <ele>183.750000</ele>
                <time>2016-10-30T05:17:26Z</time>
            </trkpt>
            <trkpt lon="101.191350" lat="14.724923">
                <ele>185.190000</ele>
                <time>2016-10-30T05:17:36Z</time>
            </trkpt>
            <trkpt lon="101.191649" lat="14.724169">
                <ele>182.310000</ele>
                <time>2016-10-30T05:18:51Z</time>
            </trkpt>
            <trkpt lon="101.191452" lat="14.723842">
                <ele>184.710000</ele>
                <time>2016-10-30T05:19:38Z</time>
            </trkpt>
            <trkpt lon="101.191462" lat="14.723696">
                <ele>185.190000</ele>
                <time>2016-10-30T05:19:47Z</time>
            </trkpt>
            <trkpt lon="101.191305" lat="14.723568">
                <ele>186.630000</ele>
                <time>2016-10-30T05:19:59Z</time>
            </trkpt>
            <trkpt lon="101.190922" lat="14.723403">
                <ele>201.530000</ele>
                <time>2016-10-30T05:20:31Z</time>
            </trkpt>
            <trkpt lon="101.189561" lat="14.723348">
                <ele>181.350000</ele>
                <time>2016-10-30T05:22:45Z</time>
            </trkpt>
            <trkpt lon="101.189199" lat="14.723205">
                <ele>189.040000</ele>
                <time>2016-10-30T05:23:43Z</time>
            </trkpt>
            <trkpt lon="101.188943" lat="14.723038">
                <ele>190.960000</ele>
                <time>2016-10-30T05:24:07Z</time>
            </trkpt>
            <trkpt lon="101.188835" lat="14.722920">
                <ele>196.250000</ele>
                <time>2016-10-30T05:24:37Z</time>
            </trkpt>
            <trkpt lon="101.188800" lat="14.722795">
                <ele>197.690000</ele>
                <time>2016-10-30T05:24:49Z</time>
            </trkpt>
            <trkpt lon="101.188413" lat="14.720862">
                <ele>192.880000</ele>
                <time>2016-10-30T05:26:53Z</time>
            </trkpt>
            <trkpt lon="101.188487" lat="14.720478">
                <ele>190.480000</ele>
                <time>2016-10-30T05:27:06Z</time>
            </trkpt>
            <trkpt lon="101.189274" lat="14.719699">
                <ele>191.920000</ele>
                <time>2016-10-30T05:27:52Z</time>
            </trkpt>
            <trkpt lon="101.189422" lat="14.719556">
                <ele>189.520000</ele>
                <time>2016-10-30T05:28:05Z</time>
            </trkpt>
            <trkpt lon="101.190117" lat="14.718769">
                <ele>190.000000</ele>
                <time>2016-10-30T05:28:47Z</time>
            </trkpt>
            <trkpt lon="101.190286" lat="14.718442">
                <ele>189.040000</ele>
                <time>2016-10-30T05:29:03Z</time>
            </trkpt>
            <trkpt lon="101.190915" lat="14.716553">
                <ele>191.440000</ele>
                <time>2016-10-30T05:30:22Z</time>
            </trkpt>
            <trkpt lon="101.191205" lat="14.716391">
                <ele>195.770000</ele>
                <time>2016-10-30T05:30:49Z</time>
            </trkpt>
            <trkpt lon="101.192223" lat="14.716005">
                <ele>199.130000</ele>
                <time>2016-10-30T05:31:50Z</time>
            </trkpt>
            <trkpt lon="101.192473" lat="14.715853">
                <ele>200.570000</ele>
                <time>2016-10-30T05:32:06Z</time>
            </trkpt>
            <trkpt lon="101.192113" lat="14.714618">
                <ele>212.590000</ele>
                <time>2016-10-30T05:33:08Z</time>
            </trkpt>
            <trkpt lon="101.191957" lat="14.714247">
                <ele>212.590000</ele>
                <time>2016-10-30T05:33:22Z</time>
            </trkpt>
            <trkpt lon="101.191654" lat="14.713438">
                <ele>207.300000</ele>
                <time>2016-10-30T05:33:50Z</time>
            </trkpt>
            <trkpt lon="101.191404" lat="14.711134">
                <ele>197.690000</ele>
                <time>2016-10-30T05:35:10Z</time>
            </trkpt>
            <trkpt lon="101.190807" lat="14.709938">
                <ele>196.250000</ele>
                <time>2016-10-30T05:36:14Z</time>
            </trkpt>
            <trkpt lon="101.190783" lat="14.709860">
                <ele>195.770000</ele>
                <time>2016-10-30T05:36:17Z</time>
            </trkpt>
            <trkpt lon="101.190888" lat="14.709701">
                <ele>197.690000</ele>
                <time>2016-10-30T05:36:26Z</time>
            </trkpt>
            <trkpt lon="101.190905" lat="14.709635">
                <ele>195.280000</ele>
                <time>2016-10-30T05:36:40Z</time>
            </trkpt>
            <trkpt lon="101.190931" lat="14.709627">
                <ele>196.250000</ele>
                <time>2016-10-30T05:37:26Z</time>
            </trkpt>
            <trkpt lon="101.190862" lat="14.709646">
                <ele>196.250000</ele>
                <time>2016-10-30T05:39:13Z</time>
            </trkpt>
            <trkpt lon="101.191261" lat="14.709283">
                <ele>198.170000</ele>
                <time>2016-10-30T05:40:05Z</time>
            </trkpt>
            <trkpt lon="101.191158" lat="14.708635">
                <ele>207.300000</ele>
                <time>2016-10-30T05:40:30Z</time>
            </trkpt>
            <trkpt lon="101.191017" lat="14.708004">
                <ele>212.110000</ele>
                <time>2016-10-30T05:40:51Z</time>
            </trkpt>
            <trkpt lon="101.191488" lat="14.707186">
                <ele>213.550000</ele>
                <time>2016-10-30T05:41:24Z</time>
            </trkpt>
            <trkpt lon="101.191506" lat="14.707038">
                <ele>205.860000</ele>
                <time>2016-10-30T05:41:34Z</time>
            </trkpt>
            <trkpt lon="101.190924" lat="14.706434">
                <ele>200.570000</ele>
                <time>2016-10-30T05:48:20Z</time>
            </trkpt>
            <trkpt lon="101.190953" lat="14.706421">
                <ele>198.650000</ele>
                <time>2016-10-30T05:48:49Z</time>
            </trkpt>
            <trkpt lon="101.190929" lat="14.706419">
                <ele>197.690000</ele>
                <time>2016-10-30T05:49:05Z</time>
            </trkpt>
            <trkpt lon="101.190928" lat="14.706442">
                <ele>196.250000</ele>
                <time>2016-10-30T05:49:26Z</time>
            </trkpt>
        </trkseg>
    </trk>
</gpx>